Flight Track Log - Related Links

Times and Time Zones

All times are in EDT time to prevent confusion due to time zone crossing. See the PDT4129 flight status page for this flight to view local times or setup timezone preferences in your user account.

Time Position Orientation Groundspeed Altitude Reporting Facility
EDT Latitude Longitude Course Direction KTS MPH feet Rate Location/Type
Sat 07:05:28 AM 35.6919 -77.3797 287° West 249 287 1,600  Level Washington Center
Sat 07:06:26 AM 35.7167 -77.4161 310° West 168 193 2,500 1,059 Climbing Washington Center
Sat 07:07:00 AM 35.6791 -77.6454 284° West  Level FlightAware Approximate
Sat 07:07:27 AM 35.7197 -77.4750 274° West 145 167 3,700  Level Washington Center
Sat 07:08:00 AM 35.6833 -77.7118 270° West  Level FlightAware Approximate
Sat 07:08:27 AM 35.7272 -77.5314 279° West 150 173 4,700  Level Washington Center
Sat 07:09:00 AM 35.6982 -77.7761 287° West  Level FlightAware Approximate
Sat 07:09:28 AM 35.7347 -77.5906 279° West 170 196 5,700  Level Washington Center
Sat 07:10:00 AM 35.7165 -77.8493 287° West  Level FlightAware Approximate
Sat 07:10:29 AM 35.7419 -77.6494 279° West 175 201 6,700  Level Washington Center
Sat 07:11:26 AM 35.7492 -77.7111 278° West 181 208 7,700 1,000 Climbing Washington Center
Sat 07:12:29 AM 35.7564 -77.7703 279° West 181 208 8,700 1,000 Climbing Washington Center
Sat 07:13:26 AM 35.7636 -77.8319 278° West 181 208 9,700 655 Climbing Washington Center
Sat 07:14:28 AM 35.7708 -77.8961 278° West 181 208 10,000 146 Climbing Washington Center
Sat 07:15:29 AM 35.7819 -77.9758 280° West 207 238 10,000 -50 Level Washington Center
Sat 07:16:27 AM 35.7925 -78.0606 279° West 234 269 9,900  Descending Washington Center
Sat 07:17:26 AM 35.8014 -78.1453 277° West 251 289 10,000  Climbing Washington Center
Sat 07:18:29 AM 35.8100 -78.2303 277° West 256 295 9,900 -49 Descending Washington Center
Sat 07:19:29 AM 35.8100 -78.3172 270° West 256 295 9,900  Level Washington Center
Sat 07:20:26 AM 35.8097 -78.4144 270° West 256 295 9,900  Level Washington Center
Sat 07:21:27 AM 35.8097 -78.5017 270° West 256 295 9,900  Level Washington Center
Sat 07:22:27 AM 35.8119 -78.5836 272° West 256 295 9,900  Level Washington Center
Sat 07:23:28 AM 35.8139 -78.6683 272° West 256 295 9,900  Level Washington Center
Sat 07:24:28 AM 35.8139 -78.7528 270° West 256 295 9,900 50 Level Washington Center
Sat 07:25:27 AM 35.8136 -78.8397 270° West 251 289 10,000  Climbing Washington Center
Sat 07:26:34 AM 35.8111 -78.9344 268° West 247 284 9,900  Descending Washington Center
Sat 07:27:35 AM 35.8128 -79.0192 271° West 245 282 10,000  Climbing Washington Center
Sat 07:28:36 AM 35.8106 -79.1008 268° West 244 281 9,900 -132 Descending Washington Center
Sat 07:30:00 AM 35.8050 -79.2028 273° West  Level FlightAware Approximate
Sat 07:37:00 AM 35.8004 -79.7282 270° West  Level FlightAware Approximate
Sat 07:38:00 AM 35.8005 -79.8035 270° West  Level FlightAware Approximate
Sat 07:39:00 AM 35.8006 -79.8788 270° West  Level FlightAware Approximate
Sat 07:40:00 AM 35.8007 -79.9541 270° West  Level FlightAware Approximate
Sat 07:41:00 AM 35.8007 -80.0294 270° West  Level FlightAware Approximate
Sat 07:42:00 AM 35.8007 -80.1047 270° West  Level FlightAware Approximate
Sat 07:42:46 AM 35.8292 -80.1942 219° Southwest 209 241 8,000  Level Atlanta Center
Sat 07:43:00 AM 35.8006 -80.1800 270° West  Level FlightAware Approximate
Sat 07:43:35 AM 35.8556 -80.2442 303° West 211 243 7,100  Level Atlanta Center
Sat 07:44:00 AM 35.8004 -80.2553 270° West  Level FlightAware Approximate
Sat 07:44:42 AM 35.8600 -80.3208 274° West 222 255 7,000  Level Atlanta Center
Sat 07:45:00 AM 35.8003 -80.3307 270° West  Level FlightAware Approximate
Sat 07:45:43 AM 35.8139 -80.3769 225° Southwest 224 258 6,600  Level Atlanta Center
Sat 07:46:00 AM 35.8000 -80.4060 270° West  Level FlightAware Approximate
Sat 07:46:44 AM 35.7722 -80.4478 234° Southwest 257 296 6,000  Level Atlanta Center
Sat 07:47:00 AM 35.7668 -80.4582 211° Southwest  Level FlightAware Approximate
Sat 07:47:45 AM 35.7303 -80.5161 233° Southwest 257 296 6,000  Level Atlanta Center
Sat 07:48:00 AM 35.7163 -80.5003 219° Southwest  Level FlightAware Approximate
Sat 07:48:40 AM 35.6925 -80.5792 234° Southwest 245 282 6,000  Level Atlanta Center
Sat 07:49:47 AM 35.6444 -80.6528 231° Southwest 242 278 6,000  Level Atlanta Center
Sat 07:50:42 AM 35.6064 -80.7156 233° Southwest 241 277 6,000  Level Atlanta Center
Sat 07:51:43 AM 35.5667 -80.7811 233° Southwest 240 276 6,000 -443 Level Atlanta Center
Sat 07:52:44 AM 35.5264 -80.8439 232° Southwest 243 280 5,100 -934 Descending Atlanta Center
Sat 07:53:45 AM 35.4844 -80.9119 233° Southwest 248 285 4,100 -541 Descending Atlanta Center
Sat 07:54:46 AM 35.4353 -80.9519 214° Southwest 194 223 4,000 -188 Descending Atlanta Center
Sat 07:55:53 AM 35.3836 -80.9692 195° South 172 198 3,700 -541 Descending Atlanta Center
Sat 07:56:48 AM 35.3397 -80.9658 176° South 162 186 2,900 -873 Descending Atlanta Center

Login

Don't have an account? Register now (free) for customized features, flight alerts, and more!